EWG84T EDDH-LSZH
Flight info
| Callsign | EWG84T |
|---|---|
| Flight time | 1h 4m |
| Altitude | 33000 |
| Route | IDEKO7G/33 IDEKO N850 ROBEG DCT SWALM DCT OMOGI T721 RILAX |
| Aircraft | A319/M-SDE3FGHIRWY/LB1 |
Departure
| Time | 2026-04-25 22:01 |
|---|---|
| Airport | Hamburg Helmut Schmidt Airport (EDDH) |
Arrival
| Time | 2026-04-25 23:06 |
|---|---|
| Airport | Zürich Airport (LSZH) |
| Time | Latitude | Longitude | Altitude | Speed | Heading |
|---|---|---|---|---|---|
| 2026-04-25 21:21 | 53.63112 | 10.00378 | 46 ft | 0 kts | 87° |
| 2026-04-25 21:22 | 53.63112 | 10.00377 | 46 ft | 0 kts | 87° |
| 2026-04-25 21:52 | 53.63111 | 10.00350 | 46 ft | 4 kts | 82° |
| 2026-04-25 21:52 | 53.63110 | 10.00307 | 44 ft | 4 kts | 111° |
| 2026-04-25 21:52 | 53.63121 | 10.00274 | 47 ft | 4 kts | 137° |
| 2026-04-25 21:52 | 53.63143 | 10.00256 | 44 ft | 4 kts | 175° |
| 2026-04-25 21:53 | 53.63156 | 10.00254 | 45 ft | 0 kts | 176° |
| 2026-04-25 21:56 | 53.63150 | 10.00255 | 46 ft | 3 kts | 176° |
| 2026-04-25 21:56 | 53.63114 | 10.00259 | 48 ft | 7 kts | 176° |
| 2026-04-25 21:56 | 53.63060 | 10.00254 | 48 ft | 8 kts | 204° |
| 2026-04-25 21:57 | 53.63008 | 10.00198 | 48 ft | 9 kts | 213° |
| 2026-04-25 21:57 | 53.62949 | 10.00134 | 48 ft | 11 kts | 212° |
| 2026-04-25 21:57 | 53.62885 | 10.00066 | 48 ft | 11 kts | 214° |
| 2026-04-25 21:57 | 53.62847 | 9.99969 | 48 ft | 2 kts | 243° |
| 2026-04-25 21:58 | 53.62845 | 9.99960 | 45 ft | 0 kts | 243° |
| 2026-04-25 21:59 | 53.62841 | 9.99949 | 46 ft | 3 kts | 243° |
| 2026-04-25 22:00 | 53.62807 | 9.99798 | 45 ft | 7 kts | 297° |
| 2026-04-25 22:00 | 53.62837 | 9.99771 | 45 ft | 2 kts | 334° |
| 2026-04-25 22:00 | 53.62838 | 9.99770 | 45 ft | 0 kts | 333° |
| 2026-04-25 22:01 | 53.62998 | 9.99632 | 45 ft | 66 kts | 333° |
| 2026-04-25 22:01 | 53.63632 | 9.99083 | 48 ft | 136 kts | 333° |
| 2026-04-25 22:01 | 53.64580 | 9.98290 | 477 ft | 153 kts | 330° |
| 2026-04-25 22:01 | 53.65212 | 9.97760 | 988 ft | 153 kts | 330° |
| 2026-04-25 22:02 | 53.66518 | 9.96636 | 1810 ft | 172 kts | 332° |
| 2026-04-25 22:02 | 53.67634 | 9.95678 | 2437 ft | 184 kts | 333° |
| 2026-04-25 22:02 | 53.68790 | 9.94687 | 3196 ft | 189 kts | 335° |
| 2026-04-25 22:02 | 53.69974 | 9.93671 | 3904 ft | 196 kts | 335° |
| 2026-04-25 22:03 | 53.71161 | 9.92421 | 4715 ft | 204 kts | 317° |
| 2026-04-25 22:03 | 53.71737 | 9.90165 | 5489 ft | 228 kts | 282° |
| 2026-04-25 22:03 | 53.71528 | 9.87293 | 5960 ft | 263 kts | 261° |
| 2026-04-25 22:03 | 53.70919 | 9.84336 | 6954 ft | 269 kts | 256° |
| 2026-04-25 22:04 | 53.70209 | 9.81410 | 7989 ft | 270 kts | 256° |
| 2026-04-25 22:04 | 53.69495 | 9.78473 | 8983 ft | 271 kts | 257° |
| 2026-04-25 22:04 | 53.68811 | 9.75505 | 9969 ft | 272 kts | 259° |
| 2026-04-25 22:04 | 53.68156 | 9.72476 | 10650 ft | 284 kts | 260° |
| 2026-04-25 22:05 | 53.67494 | 9.69190 | 10982 ft | 306 kts | 261° |
| 2026-04-25 22:05 | 53.66813 | 9.65739 | 11643 ft | 315 kts | 261° |
| 2026-04-25 22:05 | 53.65850 | 9.62318 | 12396 ft | 336 kts | 245° |
| 2026-04-25 22:05 | 53.64184 | 9.59384 | 13158 ft | 360 kts | 225° |
| 2026-04-25 22:06 | 53.61881 | 9.57431 | 13911 ft | 385 kts | 203° |
| 2026-04-25 22:06 | 53.59186 | 9.56682 | 14587 ft | 396 kts | 192° |
| 2026-04-25 22:06 | 53.56446 | 9.56160 | 15356 ft | 397 kts | 192° |
| 2026-04-25 22:06 | 53.53727 | 9.55646 | 16067 ft | 400 kts | 192° |
| 2026-04-25 22:07 | 53.50914 | 9.55108 | 16786 ft | 403 kts | 192° |
| 2026-04-25 22:07 | 53.49066 | 9.54748 | 17244 ft | 405 kts | 193° |
| 2026-04-25 22:07 | 53.45301 | 9.54001 | 18181 ft | 409 kts | 193° |
| 2026-04-25 22:07 | 53.42498 | 9.53445 | 18809 ft | 413 kts | 193° |
| 2026-04-25 22:08 | 53.39632 | 9.52879 | 19396 ft | 416 kts | 193° |
| 2026-04-25 22:08 | 53.36744 | 9.52311 | 19991 ft | 420 kts | 193° |
| 2026-04-25 22:08 | 53.33830 | 9.51742 | 20592 ft | 422 kts | 192° |
| 2026-04-25 22:08 | 53.30906 | 9.51172 | 21216 ft | 425 kts | 192° |
| 2026-04-25 22:09 | 53.27958 | 9.50592 | 21807 ft | 428 kts | 192° |
| 2026-04-25 22:09 | 53.24990 | 9.50009 | 22386 ft | 431 kts | 192° |
| 2026-04-25 22:09 | 53.22001 | 9.49427 | 22957 ft | 435 kts | 192° |
| 2026-04-25 22:09 | 53.18965 | 9.48936 | 23521 ft | 440 kts | 190° |
| 2026-04-25 22:10 | 53.15898 | 9.48549 | 24021 ft | 444 kts | 189° |
| 2026-04-25 22:10 | 53.12807 | 9.48227 | 24483 ft | 447 kts | 188° |
| 2026-04-25 22:10 | 53.09686 | 9.47926 | 24937 ft | 450 kts | 188° |
| 2026-04-25 22:10 | 53.06557 | 9.47617 | 25399 ft | 452 kts | 189° |
| 2026-04-25 22:11 | 53.03410 | 9.47286 | 25848 ft | 454 kts | 189° |
| 2026-04-25 22:11 | 53.00247 | 9.46935 | 26288 ft | 456 kts | 189° |
| 2026-04-25 22:11 | 52.97075 | 9.46562 | 26727 ft | 459 kts | 189° |
| 2026-04-25 22:11 | 52.93886 | 9.46168 | 27158 ft | 461 kts | 189° |
| 2026-04-25 22:12 | 52.90677 | 9.45765 | 27587 ft | 463 kts | 189° |
| 2026-04-25 22:12 | 52.87454 | 9.45359 | 27991 ft | 466 kts | 189° |
| 2026-04-25 22:12 | 52.84216 | 9.44956 | 28468 ft | 467 kts | 189° |
| 2026-04-25 22:12 | 52.82075 | 9.44694 | 28684 ft | 466 kts | 189° |
| 2026-04-25 22:13 | 52.77727 | 9.44165 | 29214 ft | 469 kts | 189° |
| 2026-04-25 22:13 | 52.74459 | 9.43777 | 29534 ft | 472 kts | 188° |
| 2026-04-25 22:13 | 52.71177 | 9.43386 | 29936 ft | 474 kts | 188° |
| 2026-04-25 22:13 | 52.67874 | 9.42995 | 30315 ft | 477 kts | 188° |
| 2026-04-25 22:14 | 52.64559 | 9.42597 | 30636 ft | 479 kts | 188° |
| 2026-04-25 22:14 | 52.61231 | 9.42197 | 30953 ft | 480 kts | 188° |
| 2026-04-25 22:14 | 52.57896 | 9.41804 | 31317 ft | 481 kts | 188° |
| 2026-04-25 22:14 | 52.54548 | 9.41406 | 31643 ft | 483 kts | 188° |
| 2026-04-25 22:15 | 52.51193 | 9.41007 | 31955 ft | 484 kts | 188° |
| 2026-04-25 22:15 | 52.47834 | 9.40611 | 32394 ft | 483 kts | 188° |
| 2026-04-25 22:15 | 52.44485 | 9.40218 | 32823 ft | 482 kts | 188° |
| 2026-04-25 22:16 | 52.37812 | 9.39434 | 33173 ft | 472 kts | 188° |
| 2026-04-25 22:16 | 52.34580 | 9.39058 | 33198 ft | 461 kts | 188° |
| 2026-04-25 22:16 | 52.31402 | 9.38688 | 33192 ft | 457 kts | 188° |
| 2026-04-25 22:17 | 52.25082 | 9.37952 | 33192 ft | 455 kts | 188° |
| 2026-04-25 22:17 | 52.19040 | 9.37245 | 33191 ft | 454 kts | 188° |
| 2026-04-25 22:18 | 52.12734 | 9.36503 | 33190 ft | 453 kts | 187° |
| 2026-04-25 22:18 | 52.06447 | 9.35765 | 33196 ft | 453 kts | 187° |
| 2026-04-25 22:19 | 52.00171 | 9.35033 | 33196 ft | 452 kts | 187° |
| 2026-04-25 22:19 | 51.93893 | 9.34306 | 33192 ft | 452 kts | 187° |
| 2026-04-25 22:20 | 51.87623 | 9.33589 | 33191 ft | 451 kts | 187° |
| 2026-04-25 22:20 | 51.81373 | 9.32871 | 33202 ft | 450 kts | 187° |
| 2026-04-25 22:21 | 51.75142 | 9.32148 | 33206 ft | 449 kts | 187° |
| 2026-04-25 22:21 | 51.68918 | 9.31430 | 33199 ft | 448 kts | 187° |
| 2026-04-25 22:22 | 51.62703 | 9.30720 | 33178 ft | 447 kts | 187° |
| 2026-04-25 22:22 | 51.56487 | 9.30009 | 33189 ft | 448 kts | 187° |
| 2026-04-25 22:23 | 51.50269 | 9.29307 | 33188 ft | 448 kts | 187° |
| 2026-04-25 22:23 | 51.44100 | 9.28613 | 33177 ft | 447 kts | 187° |
| 2026-04-25 22:24 | 51.37899 | 9.27919 | 33178 ft | 446 kts | 187° |
| 2026-04-25 22:24 | 51.31713 | 9.27226 | 33169 ft | 445 kts | 187° |
| 2026-04-25 22:25 | 51.25532 | 9.26531 | 33164 ft | 445 kts | 187° |
| 2026-04-25 22:25 | 51.19311 | 9.25826 | 33129 ft | 445 kts | 187° |
| 2026-04-25 22:26 | 51.13191 | 9.25141 | 33147 ft | 444 kts | 187° |
| 2026-04-25 22:26 | 51.06991 | 9.24450 | 33153 ft | 443 kts | 187° |
| 2026-04-25 22:27 | 51.00883 | 9.23772 | 33155 ft | 443 kts | 187° |
| 2026-04-25 22:27 | 50.94709 | 9.23095 | 33150 ft | 437 kts | 187° |
| 2026-04-25 22:28 | 50.88663 | 9.22431 | 33184 ft | 434 kts | 187° |
| 2026-04-25 22:28 | 50.82655 | 9.21755 | 33192 ft | 432 kts | 187° |
| 2026-04-25 22:29 | 50.77683 | 9.21207 | 33186 ft | 431 kts | 187° |
| 2026-04-25 22:29 | 50.71712 | 9.20558 | 33179 ft | 429 kts | 188° |
| 2026-04-25 22:30 | 50.61904 | 9.18654 | 33167 ft | 426 kts | 192° |
| 2026-04-25 22:30 | 50.57979 | 9.17743 | 33165 ft | 426 kts | 192° |
| 2026-04-25 22:31 | 50.51119 | 9.16255 | 33142 ft | 426 kts | 191° |
| 2026-04-25 22:31 | 50.45245 | 9.15058 | 33147 ft | 425 kts | 191° |
| 2026-04-25 22:32 | 50.39376 | 9.13866 | 33148 ft | 425 kts | 191° |
| 2026-04-25 22:32 | 50.33551 | 9.12669 | 33148 ft | 425 kts | 191° |
| 2026-04-25 22:33 | 50.27691 | 9.11465 | 33131 ft | 424 kts | 191° |
| 2026-04-25 22:33 | 50.21839 | 9.10256 | 33143 ft | 424 kts | 191° |
| 2026-04-25 22:34 | 50.16000 | 9.09069 | 33141 ft | 423 kts | 191° |
| 2026-04-25 22:34 | 50.10159 | 9.07896 | 33149 ft | 423 kts | 191° |
| 2026-04-25 22:35 | 50.04394 | 9.06733 | 33144 ft | 423 kts | 191° |
| 2026-04-25 22:35 | 49.98600 | 9.05562 | 33151 ft | 423 kts | 191° |
| 2026-04-25 22:36 | 49.92768 | 9.04369 | 33152 ft | 423 kts | 191° |
| 2026-04-25 22:36 | 49.86938 | 9.03187 | 33154 ft | 422 kts | 191° |
| 2026-04-25 22:37 | 49.81107 | 9.02020 | 33147 ft | 422 kts | 190° |
| 2026-04-25 22:37 | 49.75278 | 9.00850 | 33155 ft | 422 kts | 191° |
| 2026-04-25 22:38 | 49.69453 | 8.99692 | 33155 ft | 422 kts | 190° |
| 2026-04-25 22:38 | 49.63631 | 8.98499 | 33158 ft | 421 kts | 192° |
| 2026-04-25 22:39 | 49.57867 | 8.96945 | 33152 ft | 420 kts | 193° |
| 2026-04-25 22:39 | 49.52122 | 8.95251 | 33159 ft | 420 kts | 194° |
| 2026-04-25 22:40 | 49.46373 | 8.93608 | 33158 ft | 420 kts | 193° |
| 2026-04-25 22:40 | 49.40609 | 8.92038 | 33162 ft | 420 kts | 193° |
| 2026-04-25 22:41 | 49.34851 | 8.90472 | 33160 ft | 420 kts | 193° |
| 2026-04-25 22:41 | 49.29095 | 8.88918 | 33163 ft | 420 kts | 192° |
| 2026-04-25 22:42 | 49.23343 | 8.87371 | 33160 ft | 420 kts | 192° |
| 2026-04-25 22:42 | 49.17596 | 8.85813 | 33153 ft | 419 kts | 192° |
| 2026-04-25 22:43 | 49.11840 | 8.84246 | 32707 ft | 421 kts | 192° |
| 2026-04-25 22:43 | 49.08959 | 8.83456 | 32268 ft | 420 kts | 192° |
| 2026-04-25 22:43 | 49.06085 | 8.82669 | 31836 ft | 419 kts | 192° |
| 2026-04-25 22:44 | 49.03215 | 8.81884 | 31403 ft | 417 kts | 192° |
| 2026-04-25 22:44 | 49.00377 | 8.81112 | 30983 ft | 415 kts | 192° |
| 2026-04-25 22:44 | 48.97545 | 8.80344 | 30567 ft | 413 kts | 192° |
| 2026-04-25 22:44 | 48.94725 | 8.79583 | 30138 ft | 411 kts | 192° |
| 2026-04-25 22:45 | 48.91920 | 8.78828 | 29653 ft | 408 kts | 192° |
| 2026-04-25 22:45 | 48.89168 | 8.78080 | 29186 ft | 406 kts | 192° |
| 2026-04-25 22:45 | 48.86362 | 8.77318 | 28716 ft | 403 kts | 192° |
| 2026-04-25 22:45 | 48.83609 | 8.76576 | 28257 ft | 401 kts | 192° |
| 2026-04-25 22:46 | 48.80908 | 8.75851 | 27811 ft | 398 kts | 192° |
| 2026-04-25 22:46 | 48.78184 | 8.75123 | 27369 ft | 396 kts | 192° |
| 2026-04-25 22:46 | 48.75480 | 8.74403 | 26932 ft | 394 kts | 192° |
| 2026-04-25 22:46 | 48.72788 | 8.73684 | 26505 ft | 392 kts | 192° |
| 2026-04-25 22:47 | 48.70104 | 8.72970 | 26108 ft | 390 kts | 192° |
| 2026-04-25 22:47 | 48.67425 | 8.72256 | 25793 ft | 394 kts | 193° |
| 2026-04-25 22:47 | 48.64708 | 8.71527 | 25381 ft | 399 kts | 193° |
| 2026-04-25 22:47 | 48.61970 | 8.70797 | 24974 ft | 399 kts | 193° |
| 2026-04-25 22:48 | 48.59243 | 8.70070 | 24573 ft | 397 kts | 193° |
| 2026-04-25 22:48 | 48.56529 | 8.69347 | 24178 ft | 395 kts | 193° |
| 2026-04-25 22:48 | 48.53823 | 8.68627 | 23786 ft | 394 kts | 193° |
| 2026-04-25 22:48 | 48.51135 | 8.67909 | 23328 ft | 391 kts | 193° |
| 2026-04-25 22:49 | 48.48461 | 8.67197 | 22868 ft | 389 kts | 193° |
| 2026-04-25 22:49 | 48.45809 | 8.66495 | 22416 ft | 385 kts | 193° |
| 2026-04-25 22:49 | 48.43179 | 8.65801 | 21970 ft | 382 kts | 192° |
| 2026-04-25 22:49 | 48.40571 | 8.65115 | 21532 ft | 379 kts | 192° |
| 2026-04-25 22:50 | 48.37988 | 8.64437 | 21155 ft | 374 kts | 192° |
| 2026-04-25 22:50 | 48.35444 | 8.63732 | 20768 ft | 370 kts | 193° |
| 2026-04-25 22:50 | 48.32928 | 8.62983 | 20368 ft | 366 kts | 193° |
| 2026-04-25 22:50 | 48.30442 | 8.62212 | 19965 ft | 364 kts | 194° |
| 2026-04-25 22:51 | 48.27973 | 8.61441 | 19563 ft | 361 kts | 193° |
| 2026-04-25 22:51 | 48.25529 | 8.60687 | 19178 ft | 358 kts | 193° |
| 2026-04-25 22:51 | 48.23091 | 8.59943 | 18807 ft | 355 kts | 193° |
| 2026-04-25 22:51 | 48.20679 | 8.59214 | 18432 ft | 353 kts | 192° |
| 2026-04-25 22:52 | 48.18282 | 8.58496 | 18005 ft | 350 kts | 192° |
| 2026-04-25 22:52 | 48.15877 | 8.58011 | 17581 ft | 349 kts | 180° |
| 2026-04-25 22:52 | 48.13500 | 8.58614 | 17175 ft | 348 kts | 160° |
| 2026-04-25 22:52 | 48.12023 | 8.59524 | 16886 ft | 347 kts | 156° |
| 2026-04-25 22:53 | 48.09064 | 8.61452 | 16310 ft | 346 kts | 156° |
| 2026-04-25 22:53 | 48.06866 | 8.62892 | 15912 ft | 345 kts | 156° |
| 2026-04-25 22:53 | 48.04672 | 8.64332 | 15527 ft | 343 kts | 156° |
| 2026-04-25 22:53 | 48.02493 | 8.65761 | 15151 ft | 341 kts | 156° |
| 2026-04-25 22:54 | 48.00321 | 8.67183 | 14784 ft | 340 kts | 156° |
| 2026-04-25 22:54 | 47.98161 | 8.68588 | 14424 ft | 338 kts | 157° |
| 2026-04-25 22:54 | 47.95996 | 8.69928 | 14065 ft | 337 kts | 158° |
| 2026-04-25 22:54 | 47.93822 | 8.71219 | 13668 ft | 335 kts | 159° |
| 2026-04-25 22:55 | 47.91661 | 8.72480 | 13284 ft | 333 kts | 159° |
| 2026-04-25 22:55 | 47.89513 | 8.73727 | 12914 ft | 330 kts | 159° |
| 2026-04-25 22:55 | 47.87382 | 8.74965 | 12541 ft | 327 kts | 159° |
| 2026-04-25 22:55 | 47.85270 | 8.76201 | 12166 ft | 325 kts | 159° |
| 2026-04-25 22:56 | 47.83178 | 8.77431 | 11798 ft | 322 kts | 159° |
| 2026-04-25 22:56 | 47.81101 | 8.78655 | 11433 ft | 320 kts | 159° |
| 2026-04-25 22:56 | 47.79045 | 8.79870 | 11068 ft | 317 kts | 159° |
| 2026-04-25 22:56 | 47.77029 | 8.81062 | 10709 ft | 314 kts | 159° |
| 2026-04-25 22:57 | 47.75005 | 8.82254 | 10345 ft | 312 kts | 159° |
| 2026-04-25 22:57 | 47.72995 | 8.83432 | 10088 ft | 306 kts | 159° |
| 2026-04-25 22:57 | 47.71045 | 8.84575 | 9853 ft | 298 kts | 159° |
| 2026-04-25 22:57 | 47.69127 | 8.85699 | 9516 ft | 295 kts | 159° |
| 2026-04-25 22:58 | 47.67230 | 8.86813 | 9172 ft | 292 kts | 159° |
| 2026-04-25 22:58 | 47.65351 | 8.87915 | 8773 ft | 290 kts | 159° |
| 2026-04-25 22:58 | 47.63482 | 8.89011 | 8384 ft | 288 kts | 159° |
| 2026-04-25 22:58 | 47.61627 | 8.90100 | 8007 ft | 285 kts | 159° |
| 2026-04-25 22:59 | 47.59817 | 8.91164 | 7864 ft | 274 kts | 160° |
| 2026-04-25 22:59 | 47.58084 | 8.92179 | 7741 ft | 262 kts | 160° |
| 2026-04-25 22:59 | 47.56428 | 8.93170 | 7584 ft | 252 kts | 160° |
| 2026-04-25 22:59 | 47.54753 | 8.93822 | 7302 ft | 247 kts | 174° |
| 2026-04-25 23:00 | 47.53054 | 8.93892 | 6983 ft | 243 kts | 187° |
| 2026-04-25 23:00 | 47.51387 | 8.93520 | 6663 ft | 241 kts | 191° |
| 2026-04-25 23:00 | 47.49738 | 8.93125 | 6329 ft | 239 kts | 190° |
| 2026-04-25 23:00 | 47.48100 | 8.92738 | 5978 ft | 238 kts | 190° |
| 2026-04-25 23:01 | 47.46461 | 8.92352 | 5627 ft | 238 kts | 189° |
| 2026-04-25 23:01 | 47.44866 | 8.91765 | 5258 ft | 237 kts | 208° |
| 2026-04-25 23:01 | 47.43727 | 8.90088 | 5019 ft | 233 kts | 244° |
| 2026-04-25 23:01 | 47.43431 | 8.87744 | 5005 ft | 237 kts | 274° |
| 2026-04-25 23:02 | 47.43589 | 8.85312 | 5003 ft | 239 kts | 277° |
| 2026-04-25 23:02 | 47.43773 | 8.82865 | 5009 ft | 241 kts | 277° |
| 2026-04-25 23:02 | 47.43970 | 8.80398 | 4836 ft | 240 kts | 277° |
| 2026-04-25 23:02 | 47.44159 | 8.77951 | 4396 ft | 237 kts | 277° |
| 2026-04-25 23:03 | 47.44337 | 8.75585 | 4091 ft | 228 kts | 278° |
| 2026-04-25 23:03 | 47.44503 | 8.73313 | 3753 ft | 216 kts | 278° |
| 2026-04-25 23:03 | 47.44649 | 8.71190 | 3515 ft | 198 kts | 278° |
| 2026-04-25 23:03 | 47.44784 | 8.69221 | 3216 ft | 187 kts | 279° |
| 2026-04-25 23:04 | 47.44917 | 8.67350 | 2916 ft | 178 kts | 278° |
| 2026-04-25 23:04 | 47.45001 | 8.66166 | 2741 ft | 173 kts | 278° |
| 2026-04-25 23:04 | 47.45162 | 8.63886 | 2423 ft | 162 kts | 278° |
| 2026-04-25 23:04 | 47.45278 | 8.62291 | 2191 ft | 155 kts | 277° |
| 2026-04-25 23:05 | 47.45391 | 8.60749 | 1981 ft | 149 kts | 277° |
| 2026-04-25 23:05 | 47.45502 | 8.59233 | 1793 ft | 148 kts | 277° |
| 2026-04-25 23:05 | 47.45610 | 8.57731 | 1580 ft | 147 kts | 277° |
| 2026-04-25 23:05 | 47.45714 | 8.56256 | 1422 ft | 135 kts | 277° |
| 2026-04-25 23:06 | 47.45804 | 8.55023 | 1392 ft | 100 kts | 276° |
| 2026-04-25 23:06 | 47.45797 | 8.54402 | 1387 ft | 41 kts | 246° |
| 2026-04-25 23:06 | 47.45702 | 8.54204 | 1385 ft | 15 kts | 197° |
| 2026-04-25 23:06 | 47.45615 | 8.54252 | 1387 ft | 13 kts | 137° |
| 2026-04-25 23:07 | 47.45599 | 8.54331 | 1385 ft | 8 kts | 104° |
| 2026-04-25 23:07 | 47.45582 | 8.54415 | 1387 ft | 9 kts | 108° |
| 2026-04-25 23:07 | 47.45564 | 8.54497 | 1389 ft | 8 kts | 108° |
| 2026-04-25 23:07 | 47.45547 | 8.54575 | 1390 ft | 8 kts | 108° |
| 2026-04-25 23:08 | 47.45528 | 8.54663 | 1401 ft | 11 kts | 108° |
| 2026-04-25 23:08 | 47.45503 | 8.54776 | 1401 ft | 12 kts | 109° |
| 2026-04-25 23:08 | 47.45475 | 8.54895 | 1392 ft | 12 kts | 110° |
| 2026-04-25 23:08 | 47.45447 | 8.55010 | 1395 ft | 12 kts | 109° |
| 2026-04-25 23:09 | 47.45420 | 8.55126 | 1397 ft | 13 kts | 108° |
| 2026-04-25 23:09 | 47.45388 | 8.55261 | 1406 ft | 14 kts | 115° |
| 2026-04-25 23:09 | 47.45396 | 8.55367 | 1402 ft | 12 kts | 18° |
| 2026-04-25 23:09 | 47.45466 | 8.55412 | 1402 ft | 10 kts | 26° |
| 2026-04-25 23:10 | 47.45524 | 8.55464 | 1409 ft | 9 kts | 54° |
| 2026-04-25 23:10 | 47.45523 | 8.55550 | 1406 ft | 8 kts | 96° |
| 2026-04-25 23:10 | 47.45518 | 8.55612 | 1407 ft | 5 kts | 96° |
| 2026-04-25 23:10 | 47.45514 | 8.55671 | 1407 ft | 7 kts | 96° |
| 2026-04-25 23:11 | 47.45508 | 8.55752 | 1410 ft | 9 kts | 96° |
| 2026-04-25 23:11 | 47.45501 | 8.55855 | 1410 ft | 10 kts | 96° |
| 2026-04-25 23:11 | 47.45494 | 8.55947 | 1407 ft | 8 kts | 96° |
| 2026-04-25 23:11 | 47.45479 | 8.56009 | 1408 ft | 6 kts | 146° |
| 2026-04-25 23:12 | 47.45437 | 8.56005 | 1407 ft | 5 kts | 188° |
| 2026-04-25 23:12 | 47.45416 | 8.56002 | 1407 ft | 1 kts | 186° |
| 2026-04-25 23:12 | 47.45413 | 8.56002 | 1407 ft | 0 kts | 185° |
| 2026-04-25 23:12 | 47.45411 | 8.56002 | 1407 ft | 0 kts | 185° |